Time;durP1;ratioP1;P1;durP2;ratioP2;P2;SDS_P1;SDS_P2;PMS_P1;PMS_P2;Temp;Humidity;BMP_temperature;BMP_pressure;BME280_temperature;BME280_humidity;BME280_pressure;Samples;Min_cycle;Max_cycle;Signal;HPM_P1;HPM_P2
2022/12/25 00:01:50;;;;;;;158.98;24.08;;;4.10;99.90;;;;;;4980740;28;20046;-66
2022/12/25 00:04:15;;;;;;;216.48;29.23;;;4.10;99.90;;;;;;4981557;28;20038;-66
2022/12/25 00:06:41;;;;;;;82.85;22.50;;;4.20;99.90;;;;;;4984248;28;20078;-66
2022/12/25 00:09:06;;;;;;;90.90;23.20;;;4.20;99.90;;;;;;4985338;28;20050;-65
2022/12/25 00:11:32;;;;;;;108.40;24.75;;;4.10;99.90;;;;;;4967846;28;20054;-65
2022/12/25 00:13:58;;;;;;;119.28;25.02;;;4.20;99.90;;;;;;4980364;28;20035;-66
2022/12/25 00:16:24;;;;;;;98.13;24.40;;;4.20;99.90;;;;;;4984517;28;20388;-65
2022/12/25 00:18:51;;;;;;;148.75;26.75;;;4.20;99.90;;;;;;4984114;28;20030;-66
2022/12/25 00:21:17;;;;;;;94.63;22.92;;;4.30;99.90;;;;;;4981488;28;20054;-66
2022/12/25 00:23:43;;;;;;;82.47;22.15;;;4.20;99.90;;;;;;4984009;28;20489;-66
2022/12/25 00:26:12;;;;;;;129.85;23.90;;;4.20;99.90;;;;;;4988324;28;20115;-65
2022/12/25 00:28:37;;;;;;;218.90;26.38;;;4.20;99.90;;;;;;4987207;28;20498;-66
2022/12/25 00:31:08;;;;;;;101.40;23.88;;;4.10;99.90;;;;;;4991291;28;20118;-66
2022/12/25 00:33:39;;;;;;;136.32;24.92;;;4.20;99.90;;;;;;4993123;28;20138;-65
2022/12/25 00:36:06;;;;;;;104.53;24.27;;;4.10;99.90;;;;;;4991845;28;20367;-65
2022/12/25 00:38:34;;;;;;;102.38;24.60;;;4.10;99.90;;;;;;4994909;28;20052;-65
2022/12/25 00:41:07;;;;;;;124.47;25.23;;;4.10;99.90;;;;;;4988204;28;20034;-65
2022/12/25 00:43:33;;;;;;;108.00;22.98;;;4.00;99.90;;;;;;4984262;28;20325;-66
2022/12/25 00:46:01;;;;;;;145.95;26.38;;;4.10;99.90;;;;;;4990340;28;20141;-65
2022/12/25 00:48:29;;;;;;;142.27;27.70;;;4.10;99.90;;;;;;4969061;28;20077;-66
2022/12/25 00:50:57;;;;;;;159.90;26.48;;;4.20;99.90;;;;;;4986531;28;20046;-65
2022/12/25 00:53:23;;;;;;;110.15;24.98;;;4.10;99.90;;;;;;4985669;28;20121;-65
2022/12/25 00:55:58;;;;;;;146.13;26.15;;;4.20;99.90;;;;;;4985025;28;20050;-66
2022/12/25 00:58:25;;;;;;;143.20;26.33;;;4.10;99.90;;;;;;4981347;28;20125;-66
2022/12/25 01:00:51;;;;;;;108.55;23.10;;;4.10;99.90;;;;;;4982679;28;20038;-66
2022/12/25 01:03:17;;;;;;;115.70;24.17;;;4.20;99.90;;;;;;4983166;28;20049;-66
2022/12/25 01:05:44;;;;;;;105.40;23.95;;;4.30;99.90;;;;;;4984258;28;20074;-66
2022/12/25 01:08:09;;;;;;;92.70;22.85;;;4.20;99.90;;;;;;4984311;28;20065;-66
2022/12/25 01:10:35;;;;;;;116.40;25.23;;;4.30;99.90;;;;;;4983673;28;20602;-66
2022/12/25 01:13:01;;;;;;;97.85;22.98;;;4.30;99.90;;;;;;5000420;28;20096;-66
2022/12/25 01:15:27;;;;;;;118.47;23.88;;;4.40;99.90;;;;;;4985569;28;20440;-66
2022/12/25 01:17:52;;;;;;;102.72;24.20;;;4.40;99.90;;;;;;4983805;28;20496;-66
2022/12/25 01:20:18;;;;;;;114.35;25.52;;;4.50;99.90;;;;;;4985459;28;20125;-65
2022/12/25 01:22:44;;;;;;;114.15;24.58;;;4.60;99.90;;;;;;4983993;28;20050;-66
2022/12/25 01:25:11;;;;;;;114.97;26.20;;;4.70;99.90;;;;;;4987715;28;20042;-65
2022/12/25 01:27:37;;;;;;;122.65;25.80;;;4.80;99.90;;;;;;4987362;28;20077;-66
2022/12/25 01:30:03;;;;;;;132.77;27.50;;;4.90;99.90;;;;;;4987899;28;20501;-66
2022/12/25 01:32:29;;;;;;;110.45;25.35;;;5.00;99.90;;;;;;4969618;28;20056;-66
2022/12/25 01:34:55;;;;;;;125.90;26.35;;;5.00;99.90;;;;;;4989950;28;20050;-66
2022/12/25 01:37:22;;;;;;;155.65;29.60;;;5.10;99.90;;;;;;4988879;28;20045;-66
2022/12/25 01:39:48;;;;;;;127.93;27.73;;;5.10;99.90;;;;;;5001400;28;20045;-66
2022/12/25 01:42:19;;;;;;;118.07;27.35;;;5.10;99.90;;;;;;4984310;28;20046;-66
2022/12/25 01:44:45;;;;;;;131.38;27.80;;;5.10;99.90;;;;;;4988059;28;20046;-66
2022/12/25 01:47:11;;;;;;;115.45;27.00;;;5.10;99.90;;;;;;4987076;28;20285;-66
2022/12/25 01:49:39;;;;;;;125.72;27.27;;;5.20;99.90;;;;;;4986773;28;20053;-66
2022/12/25 01:52:09;;;;;;;124.43;27.15;;;5.30;99.90;;;;;;4986643;28;20042;-66
2022/12/25 01:54:39;;;;;;;124.75;27.33;;;5.20;99.90;;;;;;4988157;28;20050;-66
2022/12/25 01:57:09;;;;;;;121.57;26.30;;;5.30;99.90;;;;;;4984852;28;20038;-66
2022/12/25 01:59:35;;;;;;;121.90;27.95;;;5.30;99.90;;;;;;4988530;28;20054;-66
2022/12/25 02:02:01;;;;;;;146.10;28.25;;;5.40;99.90;;;;;;4990333;28;20038;-66
2022/12/25 02:04:38;;;;;;;134.32;27.95;;;5.50;99.90;;;;;;4989457;28;20038;-66
2022/12/25 02:07:13;;;;;;;110.65;26.83;;;5.50;99.90;;;;;;4990178;28;20093;-66
2022/12/25 02:09:38;;;;;;;133.45;28.52;;;5.50;99.90;;;;;;4987810;28;20085;-66
2022/12/25 02:12:05;;;;;;;113.15;26.15;;;5.50;99.90;;;;;;4990345;28;20074;-66
2022/12/25 02:14:34;;;;;;;129.25;26.58;;;5.60;99.90;;;;;;4987399;28;20050;-66
2022/12/25 02:17:40;;;;;;;144.35;27.15;;;5.60;99.90;;;;;;4989247;28;20453;-66
2022/12/25 02:20:32;;;;;;;117.63;26.23;;;5.70;99.90;;;;;;4987118;28;20515;-66
2022/12/25 02:23:16;;;;;;;96.68;24.80;;;5.70;99.90;;;;;;5002723;28;20039;-66
2022/12/25 02:26:00;;;;;;;159.45;30.20;;;5.80;99.90;;;;;;4987895;28;20133;-66
2022/12/25 02:28:43;;;;;;;125.13;25.95;;;5.80;99.90;;;;;;4989325;28;20042;-66
2022/12/25 02:31:08;;;;;;;;;;;5.80;99.90;;;;;;4987744;28;20046;-66
2022/12/25 02:34:02;;;;;;;148.07;26.92;;;6.00;99.90;;;;;;4983633;28;19976;-66
2022/12/25 02:36:48;;;;;;;112.20;25.02;;;5.90;99.90;;;;;;4985045;28;20046;-66
2022/12/25 02:42:07;;;;;;;134.48;25.63;;;6.00;99.90;;;;;;4984361;28;20054;-66
2022/12/25 03:07:10;;;;;;;102.45;23.00;;;6.40;99.90;;;;;;4990533;28;20049;-66
2022/12/25 03:12:52;;;;;;;102.70;23.67;;;6.60;99.90;;;;;;4983225;28;20994;-66
2022/12/25 03:18:08;;;;;;;127.72;24.65;;;6.60;99.90;;;;;;4989795;28;20048;-66
2022/12/25 03:28:50;;;;;;;120.07;24.50;;;6.70;99.90;;;;;;4998761;28;20076;-66
2022/12/25 03:31:40;;;;;;;123.18;24.58;;;6.70;99.90;;;;;;4983844;28;20038;-66
2022/12/25 04:37:58;;;;;;;91.25;21.48;;;6.80;99.90;;;;;;4983215;28;20053;-67
2022/12/25 04:40:24;;;;;;;97.82;21.92;;;6.80;99.90;;;;;;4982589;28;20038;-67
2022/12/25 04:42:51;;;;;;;132.13;24.92;;;6.80;99.90;;;;;;4983034;28;20077;-67
2022/12/25 04:45:16;;;;;;;83.03;21.13;;;6.80;99.90;;;;;;4997513;28;20397;-67
2022/12/25 04:47:42;;;;;;;109.00;23.13;;;6.60;99.90;;;;;;4982048;28;20158;-67
2022/12/25 04:50:08;;;;;;;87.55;22.80;;;6.80;99.90;;;;;;4984184;28;20043;-67
2022/12/25 04:52:36;;;;;;;95.15;24.10;;;6.80;99.90;;;;;;4981135;28;20046;-67
2022/12/25 04:55:02;;;;;;;97.22;23.35;;;6.70;99.90;;;;;;4998270;28;20089;-67
2022/12/25 04:57:27;;;;;;;83.30;22.75;;;6.90;99.90;;;;;;4982864;28;20038;-66
2022/12/25 04:59:53;;;;;;;107.05;24.83;;;6.90;99.90;;;;;;4981971;28;20491;-66
2022/12/25 05:02:18;;;;;;;143.77;26.95;;;6.80;99.90;;;;;;4980279;28;20073;-66
2022/12/25 05:04:45;;;;;;;105.40;24.48;;;7.00;99.90;;;;;;4980436;28;20335;-66
2022/12/25 05:07:11;;;;;;;107.05;25.08;;;7.00;99.90;;;;;;4977479;28;20978;-67
2022/12/25 05:09:40;;;;;;;93.55;24.15;;;7.00;99.90;;;;;;4966485;28;20069;-66
2022/12/25 05:12:06;;;;;;;126.25;26.13;;;7.10;99.90;;;;;;4980190;28;20512;-66
2022/12/25 05:14:32;;;;;;;116.00;26.80;;;7.20;99.90;;;;;;4982507;28;20042;-66
2022/12/25 05:16:57;;;;;;;111.05;26.48;;;7.20;99.90;;;;;;4983851;28;20069;-66
2022/12/25 05:19:23;;;;;;;118.65;26.83;;;7.30;99.90;;;;;;4985623;28;20046;-65
2022/12/25 05:21:49;;;;;;;126.75;28.75;;;7.20;99.90;;;;;;4968157;28;20479;-66
2022/12/25 05:24:14;;;;;;;129.60;28.90;;;7.30;99.90;;;;;;4985126;28;20045;-66
2022/12/25 05:26:40;;;;;;;121.47;28.10;;;7.50;99.90;;;;;;4986205;28;20078;-66
2022/12/25 05:29:05;;;;;;;130.93;28.88;;;7.50;99.90;;;;;;4985391;28;21174;-67
2022/12/25 05:31:31;;;;;;;132.90;28.30;;;7.50;99.90;;;;;;4998695;28;20077;-67
2022/12/25 05:33:57;;;;;;;128.45;29.52;;;7.50;99.90;;;;;;4983633;28;20035;-66
2022/12/25 05:36:22;;;;;;;138.32;29.63;;;7.60;99.90;;;;;;4984321;28;20590;-67
2022/12/25 05:38:48;;;;;;;133.85;30.73;;;7.70;99.90;;;;;;4984892;28;20367;-66
2022/12/25 05:41:14;;;;;;;139.75;30.33;;;7.70;99.90;;;;;;4984880;28;21260;-66
2022/12/25 05:43:40;;;;;;;131.90;30.58;;;7.70;99.90;;;;;;4984195;28;21345;-66
2022/12/25 05:46:07;;;;;;;185.00;30.90;;;7.70;99.90;;;;;;4984651;28;20038;-67
2022/12/25 05:48:35;;;;;;;131.30;30.13;;;7.90;99.90;;;;;;4984985;28;20074;-67
2022/12/25 05:51:10;;;;;;;126.85;29.70;;;7.80;99.90;;;;;;5000998;28;20137;-67
2022/12/25 05:53:36;;;;;;;122.07;29.35;;;7.80;99.90;;;;;;4984738;28;20043;-67
2022/12/25 05:56:04;;;;;;;133.68;29.92;;;7.80;99.90;;;;;;4985537;28;20038;-66
2022/12/25 05:58:32;;;;;;;151.57;29.65;;;7.90;99.90;;;;;;4983798;28;20385;-67
2022/12/25 06:00:57;;;;;;;121.15;28.42;;;8.00;99.90;;;;;;4981306;28;20034;-67
2022/12/25 06:03:23;;;;;;;121.45;28.33;;;8.00;99.90;;;;;;4983423;28;21021;-67
2022/12/25 06:05:49;;;;;;;120.18;28.70;;;8.00;99.90;;;;;;4983691;28;20049;-67
2022/12/25 06:08:14;;;;;;;134.63;29.42;;;8.00;99.90;;;;;;4985582;28;21329;-67
2022/12/25 06:10:40;;;;;;;124.20;27.83;;;8.10;99.90;;;;;;4985378;28;20137;-67
2022/12/25 06:13:06;;;;;;;120.47;27.15;;;8.10;99.90;;;;;;4984508;28;20485;-66
2022/12/25 06:15:31;;;;;;;134.27;27.65;;;8.10;99.90;;;;;;4985691;28;20131;-67
2022/12/25 06:17:59;;;;;;;113.00;26.77;;;8.10;99.90;;;;;;4983916;28;20038;-66
2022/12/25 06:20:25;;;;;;;114.18;27.55;;;8.10;99.90;;;;;;4987313;28;20042;-66
2022/12/25 06:22:50;;;;;;;134.27;26.55;;;8.10;99.90;;;;;;4984498;28;20556;-65
2022/12/25 06:25:16;;;;;;;106.35;26.20;;;8.10;99.90;;;;;;4989428;28;20053;-65
2022/12/25 06:27:41;;;;;;;104.78;25.52;;;8.00;99.90;;;;;;4987602;28;20034;-65
2022/12/25 06:30:08;;;;;;;106.68;25.00;;;8.00;99.90;;;;;;4989566;28;20077;-66
2022/12/25 06:32:33;;;;;;;104.93;26.40;;;8.00;99.90;;;;;;5000548;28;20511;-66
2022/12/25 06:34:59;;;;;;;101.70;24.60;;;8.10;99.90;;;;;;4985326;28;20054;-65
2022/12/25 06:37:24;;;;;;;91.97;23.23;;;8.10;99.90;;;;;;4985822;28;20042;-65
2022/12/25 06:39:50;;;;;;;89.80;24.25;;;8.10;99.90;;;;;;4987006;28;20037;-65
2022/12/25 06:42:16;;;;;;;98.40;23.70;;;8.10;99.90;;;;;;4983515;28;20030;-65
2022/12/25 06:44:41;;;;;;;111.05;25.27;;;8.00;99.90;;;;;;4987484;28;20045;-65
2022/12/25 06:47:07;;;;;;;106.00;24.75;;;8.10;99.90;;;;;;4974956;28;20039;-65
2022/12/25 06:49:32;;;;;;;82.57;23.02;;;8.10;99.90;;;;;;4989859;28;20042;-65
2022/12/25 06:51:58;;;;;;;94.97;23.98;;;7.90;99.90;;;;;;4990689;28;20069;-66
2022/12/25 06:54:24;;;;;;;89.03;23.73;;;8.00;99.90;;;;;;4986754;28;20054;-66
2022/12/25 06:56:49;;;;;;;85.85;22.63;;;8.00;99.90;;;;;;4990294;28;20465;-66
2022/12/25 06:59:15;;;;;;;90.30;23.52;;;8.00;99.90;;;;;;4988009;28;20031;-66
2022/12/25 07:01:46;;;;;;;102.68;24.42;;;8.00;99.90;;;;;;5008087;28;20100;-65
2022/12/25 07:04:24;;;;;;;91.93;24.85;;;8.00;99.90;;;;;;4990406;28;20154;-65
2022/12/25 07:06:49;;;;;;;83.25;24.05;;;7.90;99.90;;;;;;4987284;28;20038;-66
2022/12/25 07:09:15;;;;;;;111.60;24.98;;;7.80;99.90;;;;;;4985166;28;20165;-66
2022/12/25 07:11:41;;;;;;;90.82;22.38;;;7.80;99.90;;;;;;4985713;28;20050;-65
2022/12/25 07:14:06;;;;;;;84.97;23.00;;;7.80;99.90;;;;;;4984592;28;20090;-65
2022/12/25 07:16:32;;;;;;;74.88;22.17;;;7.90;99.90;;;;;;4985119;28;20031;-66
2022/12/25 07:19:00;;;;;;;84.28;23.52;;;7.90;99.90;;;;;;4985597;28;20492;-66
2022/12/25 07:21:26;;;;;;;73.13;21.25;;;7.80;99.90;;;;;;4987034;28;20543;-65
2022/12/25 07:23:52;;;;;;;71.78;22.00;;;7.70;99.90;;;;;;5000672;28;20046;-67
2022/12/25 07:26:17;;;;;;;86.68;22.52;;;7.80;99.90;;;;;;4982605;28;20157;-66
2022/12/25 07:28:43;;;;;;;73.72;21.08;;;7.70;99.90;;;;;;4984447;28;20034;-66
2022/12/25 07:31:12;;;;;;;72.25;21.75;;;7.70;99.90;;;;;;4984080;28;20547;-66
2022/12/25 07:33:38;;;;;;;80.03;21.58;;;7.70;99.90;;;;;;4984454;28;20038;-66
2022/12/25 07:36:04;;;;;;;84.90;21.92;;;7.70;99.90;;;;;;4979877;28;20046;-66
2022/12/25 07:38:30;;;;;;;65.72;20.52;;;7.70;99.90;;;;;;4983945;28;20105;-66
2022/12/25 07:40:56;;;;;;;72.00;20.48;;;7.70;99.90;;;;;;4983570;28;20088;-66
2022/12/25 07:43:22;;;;;;;60.92;19.83;;;7.90;99.90;;;;;;4982132;28;20547;-67
2022/12/25 07:45:52;;;;;;;71.57;20.65;;;7.90;99.90;;;;;;4985112;28;20133;-66
2022/12/25 07:48:17;;;;;;;77.18;20.73;;;7.80;99.90;;;;;;4983154;28;20053;-67
2022/12/25 07:50:43;;;;;;;77.82;21.02;;;7.80;99.90;;;;;;4984975;28;20042;-67
2022/12/25 07:53:09;;;;;;;70.93;19.48;;;7.80;99.90;;;;;;4984461;28;20061;-66
2022/12/25 07:55:34;;;;;;;65.72;19.77;;;7.90;99.90;;;;;;4983210;28;20188;-66
2022/12/25 07:58:00;;;;;;;60.53;18.52;;;7.80;99.90;;;;;;4981128;28;20125;-66
2022/12/25 08:00:28;;;;;;;67.68;19.10;;;7.80;99.90;;;;;;4982830;28;20046;-66
2022/12/25 08:02:54;;;;;;;64.18;19.45;;;7.90;99.90;;;;;;4982290;28;20057;-67
2022/12/25 08:05:20;;;;;;;73.28;19.10;;;7.80;99.90;;;;;;4984027;28;20042;-66
2022/12/25 08:07:46;;;;;;;64.82;18.58;;;7.80;99.90;;;;;;4982435;28;20059;-67
2022/12/25 08:10:11;;;;;;;58.78;18.45;;;7.90;99.90;;;;;;4982782;28;20038;-67
2022/12/25 08:12:37;;;;;;;65.55;17.55;;;7.90;99.90;;;;;;4981394;28;20172;-66
2022/12/25 08:15:02;;;;;;;57.35;17.35;;;8.00;99.90;;;;;;4981092;28;20121;-67
2022/12/25 08:17:28;;;;;;;59.90;18.17;;;8.00;99.90;;;;;;4987988;28;20466;-66
2022/12/25 08:19:54;;;;;;;61.95;17.98;;;7.90;99.90;;;;;;4984767;28;20511;-66
2022/12/25 08:22:19;;;;;;;52.97;17.65;;;8.00;99.90;;;;;;4981816;28;20069;-66
2022/12/25 08:24:45;;;;;;;58.88;17.00;;;7.90;99.90;;;;;;4984683;28;20035;-66
2022/12/25 08:27:10;;;;;;;58.38;17.88;;;8.00;99.90;;;;;;4978297;28;20047;-67
2022/12/25 08:29:36;;;;;;;68.97;17.38;;;8.00;99.90;;;;;;4982791;28;20050;-66
2022/12/25 08:32:02;;;;;;;60.03;17.15;;;7.90;99.90;;;;;;4981278;28;20477;-66
2022/12/25 08:34:27;;;;;;;53.55;17.73;;;7.90;99.90;;;;;;4984415;28;20101;-67
2022/12/25 08:36:53;;;;;;;56.08;17.27;;;8.00;99.90;;;;;;4980635;28;20145;-66
2022/12/25 08:39:18;;;;;;;52.90;16.75;;;8.00;99.90;;;;;;4998654;28;20037;-66
2022/12/25 08:41:44;;;;;;;58.65;17.02;;;8.00;99.90;;;;;;4982864;28;20038;-66
2022/12/25 08:44:10;;;;;;;63.30;18.00;;;8.00;99.90;;;;;;4982992;28;20124;-66
2022/12/25 08:46:36;;;;;;;62.58;16.77;;;8.00;99.90;;;;;;4988663;28;20049;-66
2022/12/25 08:49:01;;;;;;;49.60;15.93;;;8.10;99.90;;;;;;4994584;28;20045;-66
2022/12/25 08:51:27;;;;;;;66.00;18.35;;;8.00;99.90;;;;;;4989351;28;20052;-66
2022/12/25 08:53:58;;;;;;;73.22;18.15;;;8.10;99.90;;;;;;4990147;28;20042;-66
2022/12/25 08:56:23;;;;;;;53.67;16.23;;;8.00;99.90;;;;;;4989583;28;21274;-66
2022/12/25 08:58:49;;;;;;;48.42;16.25;;;8.00;99.90;;;;;;4988025;28;20042;-66
2022/12/25 09:01:15;;;;;;;53.25;17.58;;;8.00;99.90;;;;;;5004411;28;20577;-66
2022/12/25 09:03:41;;;;;;;55.80;16.77;;;8.00;99.90;;;;;;4990973;28;20041;-66
2022/12/25 09:06:13;;;;;;;57.60;17.80;;;8.10;99.90;;;;;;5008510;28;20040;-66
2022/12/25 09:08:39;;;;;;;50.67;16.50;;;8.00;99.90;;;;;;4991455;28;20449;-66
2022/12/25 09:11:08;;;;;;;55.17;16.92;;;8.10;99.90;;;;;;4975478;28;20451;-66
2022/12/25 09:13:34;;;;;;;54.15;16.70;;;8.10;99.90;;;;;;4996241;28;20134;-66
2022/12/25 09:16:07;;;;;;;64.45;16.98;;;8.00;99.90;;;;;;4991200;28;20049;-66
2022/12/25 09:18:33;;;;;;;52.13;16.38;;;8.00;99.90;;;;;;4990029;28;20077;-66
2022/12/25 09:21:00;;;;;;;46.28;15.00;;;8.00;99.90;;;;;;4991397;28;20477;-66
2022/12/25 09:23:27;;;;;;;48.28;15.75;;;8.10;99.90;;;;;;4991815;28;20048;-66
2022/12/25 09:25:53;;;;;;;59.20;16.35;;;8.10;99.90;;;;;;4991780;28;20037;-66
2022/12/25 09:28:18;;;;;;;56.08;16.13;;;8.10;99.90;;;;;;4995326;28;20041;-67
2022/12/25 09:30:44;;;;;;;58.25;16.17;;;8.20;99.90;;;;;;4993090;28;20048;-66
2022/12/25 09:33:09;;;;;;;50.67;16.40;;;8.20;99.90;;;;;;4988689;28;20257;-66
2022/12/25 09:35:35;;;;;;;56.75;17.70;;;8.20;99.90;;;;;;4992451;28;20053;-66
2022/12/25 09:38:01;;;;;;;48.17;16.75;;;8.20;99.90;;;;;;5006825;28;20484;-66
2022/12/25 09:40:29;;;;;;;51.55;16.58;;;8.20;99.90;;;;;;5008240;28;20045;-66
2022/12/25 09:42:57;;;;;;;52.70;15.55;;;8.30;99.90;;;;;;4992067;28;20116;-66
2022/12/25 09:45:36;;;;;;;57.33;16.38;;;8.30;99.90;;;;;;4992197;28;20033;-66
2022/12/25 09:48:02;;;;;;;54.33;16.23;;;8.40;99.90;;;;;;5005679;28;20052;-66
2022/12/25 09:50:41;;;;;;;51.03;15.52;;;8.30;99.90;;;;;;4990124;28;20749;-66
2022/12/25 09:53:13;;;;;;;53.63;16.58;;;8.40;99.90;;;;;;4988469;28;20080;-66
2022/12/25 09:55:44;;;;;;;;;;;8.40;99.90;;;;;;4992141;28;20038;-66
2022/12/25 09:58:12;;;;;;;48.35;15.48;;;8.40;99.90;;;;;;4988485;28;19924;-66
2022/12/25 10:00:41;;;;;;;48.38;15.30;;;8.40;99.90;;;;;;4990258;28;20045;-66
2022/12/25 10:03:42;;;;;;;49.45;15.73;;;8.40;99.90;;;;;;4986905;28;20095;-67
2022/12/25 10:06:37;;;;;;;48.97;16.20;;;8.50;99.90;;;;;;4986229;28;20057;-67
2022/12/25 10:09:30;;;;;;;57.45;16.40;;;8.50;99.90;;;;;;4972733;28;20066;-66
2022/12/25 10:12:05;;;;;;;;;;;8.50;99.90;;;;;;4993133;28;20048;-67
2022/12/25 10:14:57;;;;;;;47.35;15.43;;;8.40;99.90;;;;;;5007161;28;19927;-67
2022/12/25 10:17:57;;;;;;;47.20;15.80;;;8.50;99.90;;;;;;4991779;28;20552;-67
2022/12/25 10:20:41;;;;;;;43.33;15.82;;;8.50;99.90;;;;;;5002764;28;20125;-66
2022/12/25 10:23:33;;;;;;;45.40;15.82;;;8.50;99.90;;;;;;4989412;28;20437;-66
2022/12/25 10:25:58;;;;;;;48.13;15.70;;;8.50;99.90;;;;;;4987644;28;20049;-67
2022/12/25 10:28:42;;;;;;;51.58;15.32;;;8.50;99.90;;;;;;4986940;28;20197;-67
2022/12/25 10:31:29;;;;;;;50.35;15.35;;;8.50;99.90;;;;;;4988762;28;20046;-67
2022/12/25 10:33:55;;;;;;;48.17;15.40;;;8.40;99.90;;;;;;4989833;28;20053;-66
2022/12/25 10:36:24;;;;;;;41.92;15.48;;;8.40;99.90;;;;;;4996856;28;20038;-67
2022/12/25 10:38:50;;;;;;;44.28;13.90;;;8.50;99.90;;;;;;4993671;28;20042;-66
2022/12/25 10:41:49;;;;;;;42.53;15.35;;;8.50;99.90;;;;;;5009469;28;20145;-67
2022/12/25 10:44:19;;;;;;;40.20;15.18;;;8.50;99.90;;;;;;4991618;28;20473;-68
2022/12/25 10:46:56;;;;;;;46.17;15.80;;;8.60;99.90;;;;;;4995112;28;20500;-67
2022/12/25 10:49:24;;;;;;;48.40;15.90;;;8.70;99.90;;;;;;4991402;28;20099;-69
2022/12/25 10:51:50;;;;;;;48.92;14.77;;;8.70;99.90;;;;;;4990892;28;20049;-68
2022/12/25 10:54:26;;;;;;;43.67;14.35;;;8.70;99.90;;;;;;4987578;28;20388;-67
2022/12/25 10:56:58;;;;;;;41.63;14.10;;;8.70;99.90;;;;;;4992305;28;20063;-68
2022/12/25 10:59:26;;;;;;;45.90;14.93;;;8.70;99.90;;;;;;4987538;28;20042;-67
2022/12/25 11:01:53;;;;;;;42.33;14.52;;;8.90;99.90;;;;;;4988776;28;20092;-67
2022/12/25 11:04:23;;;;;;;43.30;13.77;;;8.90;99.90;;;;;;4988287;28;20030;-69
2022/12/25 11:07:11;;;;;;;36.92;13.63;;;8.90;99.90;;;;;;4989364;28;20042;-67
2022/12/25 11:09:37;;;;;;;39.90;13.73;;;8.90;99.90;;;;;;4991134;28;20041;-69
2022/12/25 11:12:03;;;;;;;41.90;13.60;;;9.00;99.90;;;;;;4979336;28;20046;-69
2022/12/25 11:14:29;;;;;;;43.00;13.25;;;9.00;99.90;;;;;;4985287;28;20133;-69
2022/12/25 11:17:05;;;;;;;35.03;12.98;;;9.00;99.90;;;;;;4991963;28;20433;-69
2022/12/25 11:19:32;;;;;;;45.22;13.02;;;9.00;99.90;;;;;;4989630;28;20030;-69
2022/12/25 11:22:00;;;;;;;46.22;13.20;;;9.00;99.90;;;;;;4989238;28;20037;-66
2022/12/25 11:24:28;;;;;;;34.08;13.75;;;9.10;99.90;;;;;;5006747;28;20049;-67
2022/12/25 11:26:57;;;;;;;38.38;13.68;;;9.10;99.90;;;;;;5008396;28;20093;-67
2022/12/25 11:29:45;;;;;;;34.05;12.93;;;9.20;99.90;;;;;;4991754;28;20630;-67
2022/12/25 11:32:27;;;;;;;33.90;12.57;;;9.20;99.90;;;;;;4992278;28;20404;-67
2022/12/25 11:34:54;;;;;;;41.33;13.10;;;9.20;99.90;;;;;;4990896;28;20448;-67
2022/12/25 11:37:46;;;;;;;29.98;12.50;;;9.30;99.90;;;;;;5004956;28;20041;-67
2022/12/25 11:40:21;;;;;;;42.30;12.38;;;9.30;99.90;;;;;;4982213;28;20049;-67
2022/12/25 11:42:51;;;;;;;37.20;12.32;;;9.30;99.90;;;;;;4991384;28;20056;-67
2022/12/25 11:45:23;;;;;;;41.28;12.50;;;9.30;99.90;;;;;;4991442;28;20045;-68
2022/12/25 11:47:53;;;;;;;36.85;12.20;;;9.50;99.90;;;;;;4993963;28;20500;-67
2022/12/25 11:50:22;;;;;;;38.80;12.75;;;9.50;99.90;;;;;;4991651;28;20034;-67
2022/12/25 11:52:49;;;;;;;34.78;12.65;;;9.40;99.90;;;;;;5005902;28;20053;-69
2022/12/25 11:55:20;;;;;;;41.05;12.20;;;9.40;99.90;;;;;;4985965;28;20046;-69
2022/12/25 11:57:53;;;;;;;35.33;13.48;;;9.40;99.90;;;;;;5001050;28;20613;-68
2022/12/25 12:00:19;;;;;;;36.13;12.52;;;9.40;99.90;;;;;;4985228;28;20049;-67
2022/12/25 12:03:02;;;;;;;38.00;12.90;;;9.30;99.90;;;;;;4981711;28;21883;-66
2022/12/25 12:05:37;;;;;;;32.75;12.73;;;9.40;99.90;;;;;;4984455;28;20068;-67
2022/12/25 12:08:04;;;;;;;31.13;12.40;;;9.40;99.90;;;;;;4985527;28;20046;-67
2022/12/25 12:11:14;;;;;;;37.20;13.13;;;9.40;99.90;;;;;;5000628;28;20048;-69
2022/12/25 12:13:57;;;;;;;43.75;12.45;;;9.40;99.90;;;;;;4981725;28;20092;-67
2022/12/25 12:16:23;;;;;;;32.35;11.77;;;9.40;99.90;;;;;;5000734;28;20614;-66
2022/12/25 12:18:48;;;;;;;42.53;12.23;;;9.40;99.90;;;;;;4989054;28;20041;-67
2022/12/25 12:21:28;;;;;;;34.45;11.80;;;9.40;99.90;;;;;;4984896;28;20195;-67
2022/12/25 12:24:05;;;;;;;32.22;11.93;;;9.40;99.90;;;;;;5005597;28;20057;-67
2022/12/25 12:26:36;;;;;;;38.80;12.30;;;9.40;99.90;;;;;;4996396;28;20088;-68
2022/12/25 12:29:05;;;;;;;32.20;11.57;;;9.40;99.90;;;;;;4992099;28;20050;-68
2022/12/25 12:31:44;;;;;;;33.15;12.25;;;9.40;99.90;;;;;;4994390;28;20038;-68
2022/12/25 12:34:25;;;;;;;39.70;12.30;;;9.30;99.90;;;;;;4996235;28;20049;-67
2022/12/25 12:37:02;;;;;;;38.45;12.05;;;9.30;99.90;;;;;;4991493;28;20091;-68
2022/12/25 12:39:35;;;;;;;37.60;12.35;;;9.30;99.90;;;;;;4988597;28;20030;-67
2022/12/25 12:42:01;;;;;;;29.33;11.68;;;9.20;99.90;;;;;;5007008;28;20068;-68
2022/12/25 12:44:33;;;;;;;35.47;12.60;;;9.30;99.90;;;;;;4991116;28;20037;-68
2022/12/25 12:46:59;;;;;;;52.38;13.82;;;9.30;99.90;;;;;;5003854;28;21071;-68
2022/12/25 12:49:26;;;;;;;36.88;12.25;;;9.30;99.90;;;;;;4989598;28;20038;-69
2022/12/25 12:52:21;;;;;;;34.05;12.90;;;9.30;99.90;;;;;;4988342;28;20053;-69
2022/12/25 12:55:02;;;;;;;37.08;12.95;;;9.30;99.90;;;;;;4986967;28;20090;-69
2022/12/25 12:57:38;;;;;;;44.77;13.50;;;9.20;99.90;;;;;;4988058;28;20048;-69
2022/12/25 13:00:09;;;;;;;33.42;12.60;;;9.30;99.90;;;;;;4985520;28;20475;-69
2022/12/25 13:03:10;;;;;;;36.00;13.43;;;9.20;99.90;;;;;;4987793;28;20038;-68
2022/12/25 13:06:17;;;;;;;39.90;13.63;;;9.30;99.90;;;;;;4989973;28;20050;-68
2022/12/25 13:09:05;;;;;;;38.33;13.18;;;9.30;99.90;;;;;;4929321;28;20051;-68
2022/12/25 13:11:37;;;;;;;39.95;14.65;;;9.10;99.90;;;;;;4983699;28;20050;-68
2022/12/25 13:14:03;;;;;;;;;;;9.10;99.90;;;;;;4988326;28;20042;-68
2022/12/25 13:16:34;;;;;;;45.10;14.52;;;9.10;99.90;;;;;;4990887;28;19918;-68
2022/12/25 13:19:06;;;;;;;50.55;14.90;;;9.20;99.90;;;;;;4989570;28;20041;-68
2022/12/25 13:21:32;;;;;;;39.85;15.00;;;9.10;99.90;;;;;;4991122;28;20480;-69
2022/12/25 13:24:07;;;;;;;41.30;15.10;;;9.10;99.90;;;;;;4986956;28;20497;-69
2022/12/25 13:26:33;;;;;;;46.65;15.65;;;9.10;99.90;;;;;;4984981;28;20099;-68
2022/12/25 13:28:59;;;;;;;40.60;15.85;;;9.20;99.90;;;;;;4988021;28;20128;-68
2022/12/25 13:31:29;;;;;;;56.92;17.58;;;9.20;99.90;;;;;;4985454;28;20046;-67
2022/12/25 13:34:02;;;;;;;46.55;16.17;;;9.10;99.90;;;;;;4987950;28;20053;-67
2022/12/25 13:36:38;;;;;;;44.92;17.60;;;9.10;99.90;;;;;;5002690;28;20084;-67
2022/12/25 13:39:07;;;;;;;48.75;18.25;;;9.00;99.90;;;;;;4985643;28;20042;-67
2022/12/25 13:44:33;;;;;;;57.22;19.67;;;9.20;99.90;;;;;;5006550;28;20108;-67
2022/12/25 13:47:22;;;;;;;56.30;18.83;;;9.00;99.90;;;;;;4989075;28;20040;-67
2022/12/25 13:49:49;;;;;;;70.05;21.23;;;9.10;99.90;;;;;;4991077;28;21526;-68
2022/12/25 13:52:20;;;;;;;58.28;21.55;;;9.10;99.90;;;;;;4988234;28;20049;-68
2022/12/25 13:55:01;;;;;;;67.25;23.33;;;9.00;99.90;;;;;;4990264;28;20095;-67
2022/12/25 13:57:31;;;;;;;60.25;23.55;;;9.10;99.90;;;;;;4969859;28;20066;-67
2022/12/25 13:59:58;;;;;;;66.10;23.88;;;9.00;99.90;;;;;;4986776;28;20070;-66
2022/12/25 14:02:29;;;;;;;70.88;25.15;;;9.00;99.90;;;;;;4986678;28;20443;-66
2022/12/25 14:04:55;;;;;;;64.57;24.52;;;9.00;99.90;;;;;;4988358;28;20045;-67
2022/12/25 14:07:25;;;;;;;70.10;26.63;;;9.00;99.90;;;;;;4987700;28;20042;-67
2022/12/25 14:10:00;;;;;;;71.45;25.38;;;8.90;99.90;;;;;;4988089;28;20108;-66
2022/12/25 14:12:29;;;;;;;69.72;25.75;;;8.90;99.90;;;;;;4987189;28;20504;-67
2022/12/25 14:14:56;;;;;;;73.65;26.67;;;8.90;99.90;;;;;;4991502;28;20046;-67
2022/12/25 14:17:23;;;;;;;89.82;27.95;;;9.00;99.90;;;;;;4992141;28;20451;-67
2022/12/25 14:19:59;;;;;;;70.65;26.17;;;8.90;99.90;;;;;;4987047;28;20045;-67
2022/12/25 14:22:26;;;;;;;90.95;28.10;;;8.90;99.90;;;;;;4987001;28;20064;-67
2022/12/25 14:24:52;;;;;;;69.72;27.10;;;8.80;99.90;;;;;;5006164;28;20081;-67
2022/12/25 14:27:27;;;;;;;73.72;27.40;;;8.80;99.90;;;;;;4993347;28;20639;-67
2022/12/25 14:29:57;;;;;;;73.90;27.65;;;9.00;99.90;;;;;;4994525;28;20495;-67
2022/12/25 14:32:28;;;;;;;67.55;26.02;;;9.00;99.90;;;;;;4992178;28;20045;-67
2022/12/25 14:34:58;;;;;;;73.55;26.58;;;8.80;99.90;;;;;;4991763;28;20049;-67
2022/12/25 14:37:28;;;;;;;81.47;27.23;;;8.80;99.90;;;;;;4991885;28;20078;-67